Cathy — WDF2373 — position and weather

sailwx.info

Track history (hours):
 
Tides and Currents Weather Stations Pressure Air Temp Water Temp Dewpoint Dewpoint Depression Visibility Wind Speed Wind Dir Waves Ship Positions

Cathy

Owner: Enterprise Marine Services, LLC, San Antonio, TX. More information available from US FCC via Universal Licensing System and Coast Guard Vessel Documentation Center.

Last reported at 2017-Oct-15 12:22 UTC. Time now 2017-Oct-18 23:51 UTC.
Position N 30°04' W 093°42'.

Length 23 m; draft 2.7 m.

Type: Tug. MMSI: 367017940.

Date/timePositionNaut miles runAvg speedWind from/ knotsBaromVisibWave heightAir tempDewpointWater temp
2017-Oct-15 12:22N 30°04' W 093°42'3 6.0
2017-Oct-15 11:57N 30°04' W 093°39'3 5.9
2017-Oct-15 11:29N 30°04' W 093°35'3 6.4
2017-Oct-15 11:00N 30°04' W 093°32'3 6.6
2017-Oct-15 10:30N 30°04' W 093°28'3 6.3
2017-Oct-15 10:00N 30°04' W 093°24'3 5.2
2017-Oct-15 09:30N 30°04' W 093°21'2 4.8
2017-Oct-15 09:01N 30°05' W 093°20'2 3.6
2017-Oct-15 08:30N 30°05' W 093°18'1 1.8
2017-Oct-15 08:00N 30°05' W 093°17'1 2.5
2017-Oct-15 07:30N 30°04' W 093°16'2 3.6
2017-Oct-15 07:01N 30°02' W 093°15'2 4.4
2017-Oct-15 06:30N 30°00' W 093°14'2 4.6
2017-Oct-15 06:00N 29°59' W 093°12'2 4.9
2017-Oct-15 05:30N 29°57' W 093°10'43 5.5
2017-Oct-14 21:37N 29°51' W 092°21'2 5.3
2017-Oct-14 21:10N 29°50' W 092°18'1 5.5
2017-Oct-14 21:00N 29°49' W 092°18'2 4.9
2017-Oct-14 20:30N 29°48' W 092°15'3 6.2
2017-Oct-14 20:00N 29°47' W 092°12'3 5.3
2017-Oct-14 19:30N 29°47' W 092°09'4 7.5
2017-Oct-14 19:00N 29°48' W 092°05'59 4.5
2017-Oct-14 05:55N 29°36' W 090°58'3 6.4
2017-Oct-14 05:30N 29°34' W 090°56'4 6.6
2017-Oct-14 04:56N 29°32' W 090°52'3 6.5
2017-Oct-14 04:30N 29°32' W 090°49'3 5.8
2017-Oct-14 04:00N 29°33' W 090°46'2 4.3
2017-Oct-14 03:30N 29°34' W 090°44'2 3.8
2017-Oct-14 03:00N 29°36' W 090°43'2 3.1
2017-Oct-14 02:31N 29°36' W 090°41'3 5.7
2017-Oct-14 02:00N 29°35' W 090°38'3 5.1
2017-Oct-14 01:28N 29°35' W 090°35'3 5.8
2017-Oct-14 01:01N 29°34' W 090°32'  
2017-Oct-08 13:02N 29°33' W 090°28'0 5.4
2017-Oct-08 12:59N 29°34' W 090°29'3 5.4
2017-Oct-08 12:30N 29°34' W 090°32'1 1.1
2017-Oct-08 12:00N 29°33' W 090°32'0 0.0
2017-Oct-08 11:30N 29°33' W 090°32'0 0.0
2017-Oct-08 11:00N 29°33' W 090°32'0 0.0
2017-Oct-08 10:30N 29°33' W 090°32'0 0.0
2017-Oct-08 10:00N 29°33' W 090°32'0 0.0
2017-Oct-08 09:30N 29°33' W 090°32'0 0.0
2017-Oct-08 09:00N 29°33' W 090°32'0 0.0
2017-Oct-08 08:30N 29°33' W 090°32'0 0.0
2017-Oct-08 08:00N 29°33' W 090°32'0 0.0
2017-Oct-08 07:30N 29°33' W 090°32'0 0.0
2017-Oct-08 07:00N 29°33' W 090°32'0 0.0
2017-Oct-08 06:30N 29°33' W 090°32'0 0.0
2017-Oct-08 06:00N 29°33' W 090°32'0 0.0
2017-Oct-08 05:30N 29°33' W 090°32'0 0.0
2017-Oct-08 05:00N 29°33' W 090°32'0 0.0
2017-Oct-08 04:30N 29°33' W 090°32'0 0.0
2017-Oct-08 04:00N 29°33' W 090°32'0 0.0
2017-Oct-08 03:30N 29°33' W 090°32'0 0.0
2017-Oct-08 03:00N 29°33' W 090°32'0 0.0
2017-Oct-08 02:30N 29°33' W 090°32'0 0.0
2017-Oct-08 02:00N 29°33' W 090°32'0 0.0
2017-Oct-08 01:30N 29°33' W 090°32'0 0.0
2017-Oct-08 01:00N 29°33' W 090°32'0 0.0
2017-Oct-08 00:30N 29°33' W 090°32'0 0.0
2017-Oct-08 00:00N 29°33' W 090°32'0 0.0
2017-Oct-07 23:30N 29°33' W 090°32'0 0.0
2017-Oct-07 23:00N 29°33' W 090°32'0 0.0
2017-Oct-07 22:30N 29°33' W 090°32'0 0.0
2017-Oct-07 22:00N 29°33' W 090°32'0 0.0
2017-Oct-07 21:30N 29°33' W 090°32'0 0.0
2017-Oct-07 21:00N 29°33' W 090°32'0 0.0
2017-Oct-07 20:30N 29°33' W 090°32'0 0.0
2017-Oct-07 20:00N 29°33' W 090°32'0 0.0
2017-Oct-07 19:30N 29°33' W 090°32'0 0.0
2017-Oct-07 19:00N 29°33' W 090°32'0 0.0
2017-Oct-07 18:30N 29°33' W 090°32'0 0.0
2017-Oct-07 18:00N 29°33' W 090°32'0 0.0
2017-Oct-07 17:30N 29°33' W 090°32'0 0.0
2017-Oct-07 17:00N 29°33' W 090°32'0 0.0
2017-Oct-07 16:30N 29°33' W 090°32'0 0.0
2017-Oct-07 16:00N 29°33' W 090°32'0 0.0
2017-Oct-07 15:30N 29°33' W 090°32'0 0.0
2017-Oct-07 15:00N 29°33' W 090°32'0 0.0
2017-Oct-07 14:30N 29°33' W 090°32'0 0.0
2017-Oct-07 14:00N 29°33' W 090°32'0 0.0
2017-Oct-07 13:30N 29°33' W 090°32'0 0.0
2017-Oct-07 13:00N 29°33' W 090°32'0 0.0
2017-Oct-07 12:30N 29°33' W 090°32'0 0.0
2017-Oct-07 12:00N 29°33' W 090°32'0 0.0
2017-Oct-07 11:30N 29°33' W 090°32'0 0.0
2017-Oct-07 11:00N 29°33' W 090°32'0 0.0
2017-Oct-07 10:30N 29°33' W 090°32'0 0.0
2017-Oct-07 10:00N 29°33' W 090°32'0 0.0
2017-Oct-07 09:30N 29°33' W 090°32'0 0.0
2017-Oct-07 09:00N 29°33' W 090°32'0 0.0
2017-Oct-07 08:30N 29°33' W 090°32'0 0.0
2017-Oct-07 08:00N 29°33' W 090°32'0 0.0
2017-Oct-07 07:30N 29°33' W 090°32'0 0.0
2017-Oct-07 06:59N 29°33' W 090°32'0 0.0
2017-Oct-07 06:30N 29°33' W 090°32'0 0.0
2017-Oct-07 06:00N 29°33' W 090°32'0 0.0
2017-Oct-07 05:30N 29°33' W 090°32'0 0.0
2017-Oct-07 05:00N 29°33' W 090°32'0 0.0
2017-Oct-07 04:30N 29°33' W 090°32'0 0.0
2017-Oct-07 04:00N 29°33' W 090°32'0 0.1
2017-Oct-07 03:30N 29°34' W 090°32'0 0.3
2017-Oct-07 02:59N 29°34' W 090°32'4 0.4
2017-Oct-06 16:27N 29°33' W 090°28'2 5.6
2017-Oct-06 16:00N 29°34' W 090°31'1 3.0
2017-Oct-06 15:30N 29°34' W 090°32'0 0.3
2017-Oct-06 15:00N 29°33' W 090°32'0 0.0
2017-Oct-06 14:30N 29°33' W 090°32'0 0.0
2017-Oct-06 14:00N 29°33' W 090°32'0 0.0
2017-Oct-06 13:30N 29°33' W 090°32'0 0.0
2017-Oct-06 13:00N 29°33' W 090°32'0 0.0
2017-Oct-06 12:30N 29°33' W 090°32'0 0.0
2017-Oct-06 12:00N 29°33' W 090°32'0 0.0
2017-Oct-06 11:30N 29°33' W 090°32'0 0.0
2017-Oct-06 11:00N 29°33' W 090°32'0 0.0
2017-Oct-06 10:30N 29°33' W 090°32'0 0.0
2017-Oct-06 10:00N 29°33' W 090°32'0 0.0
2017-Oct-06 09:30N 29°33' W 090°32'0 0.0
2017-Oct-06 09:00N 29°33' W 090°32'0 0.0
2017-Oct-06 08:30N 29°33' W 090°32'0 0.0
2017-Oct-06 08:00N 29°33' W 090°32'0 0.0
2017-Oct-06 07:30N 29°33' W 090°32'0 0.0
2017-Oct-06 07:00N 29°33' W 090°32'0 0.0
2017-Oct-06 06:30N 29°33' W 090°32'0 0.0
2017-Oct-06 06:00N 29°33' W 090°32'0 0.0
2017-Oct-06 05:30N 29°33' W 090°32'0 0.0
2017-Oct-06 05:00N 29°33' W 090°32'0 0.0
2017-Oct-06 04:30N 29°33' W 090°32'0 0.0
2017-Oct-06 04:00N 29°33' W 090°32'0 0.0
2017-Oct-06 03:30N 29°33' W 090°32'0 0.0
2017-Oct-06 03:00N 29°33' W 090°32'0 0.0
2017-Oct-06 02:30N 29°33' W 090°32'0 0.0
2017-Oct-06 02:00N 29°33' W 090°32'0 0.0
2017-Oct-06 01:30N 29°33' W 090°32'0 0.0
2017-Oct-06 01:00N 29°33' W 090°32'0 0.0
2017-Oct-06 00:30N 29°33' W 090°32'0 0.0
2017-Oct-06 00:00N 29°33' W 090°32'0 0.0
2017-Oct-05 23:28N 29°33' W 090°32'0 0.0
2017-Oct-05 23:00N 29°33' W 090°32'0 0.0
2017-Oct-05 22:30N 29°33' W 090°32'0 0.0
2017-Oct-05 22:00N 29°34' W 090°32'0 0.5
2017-Oct-05 21:30N 29°34' W 090°32'2 3.1
2017-Oct-05 21:00N 29°34' W 090°34'2 4.0
2017-Oct-05 20:30N 29°35' W 090°36'2 4.5
2017-Oct-05 20:00N 29°35' W 090°39'2 4.4
2017-Oct-05 19:30N 29°36' W 090°41'1 2.7
2017-Oct-05 19:00N 29°36' W 090°43'2 3.5
2017-Oct-05 18:30N 29°34' W 090°43'2 3.4
2017-Oct-05 18:00N 29°34' W 090°45'2 4.5
2017-Oct-05 17:30N 29°32' W 090°47'3 5.2
2017-Oct-05 16:59N 29°32' W 090°50'  
Track history (hours):
 
Tides and Currents Weather Stations Pressure Air Temp Water Temp Dewpoint Dewpoint Depression Visibility Wind Speed Wind Dir Waves Ship Positions

Cathy

Owner: Enterprise Marine Services, LLC, San Antonio, TX. More information available from US FCC via Universal Licensing System and Coast Guard Vessel Documentation Center.

Last reported at 2017-Oct-15 12:22 UTC. Time now 2017-Oct-18 23:51 UTC.
Position N 30°04' W 093°42'.

Length 23 m; draft 2.7 m.

Type: Tug. MMSI: 367017940.

Date/timePositionNaut miles runAvg speedWind from/ knotsBaromVisibWave heightAir tempDewpointWater temp
2017-Oct-15 12:22N 30°04' W 093°42'3 6.0
2017-Oct-15 11:57N 30°04' W 093°39'3 5.9
2017-Oct-15 11:29N 30°04' W 093°35'3 6.4
2017-Oct-15 11:00N 30°04' W 093°32'3 6.6
2017-Oct-15 10:30N 30°04' W 093°28'3 6.3
2017-Oct-15 10:00N 30°04' W 093°24'3 5.2
2017-Oct-15 09:30N 30°04' W 093°21'2 4.8
2017-Oct-15 09:01N 30°05' W 093°20'2 3.6
2017-Oct-15 08:30N 30°05' W 093°18'1 1.8
2017-Oct-15 08:00N 30°05' W 093°17'1 2.5
2017-Oct-15 07:30N 30°04' W 093°16'2 3.6
2017-Oct-15 07:01N 30°02' W 093°15'2 4.4
2017-Oct-15 06:30N 30°00' W 093°14'2 4.6
2017-Oct-15 06:00N 29°59' W 093°12'2 4.9
2017-Oct-15 05:30N 29°57' W 093°10'43 5.5
2017-Oct-14 21:37N 29°51' W 092°21'2 5.3
2017-Oct-14 21:10N 29°50' W 092°18'1 5.5
2017-Oct-14 21:00N 29°49' W 092°18'2 4.9
2017-Oct-14 20:30N 29°48' W 092°15'3 6.2
2017-Oct-14 20:00N 29°47' W 092°12'3 5.3
2017-Oct-14 19:30N 29°47' W 092°09'4 7.5
2017-Oct-14 19:00N 29°48' W 092°05'59 4.5
2017-Oct-14 05:55N 29°36' W 090°58'3 6.4
2017-Oct-14 05:30N 29°34' W 090°56'4 6.6
2017-Oct-14 04:56N 29°32' W 090°52'3 6.5
2017-Oct-14 04:30N 29°32' W 090°49'3 5.8
2017-Oct-14 04:00N 29°33' W 090°46'2 4.3
2017-Oct-14 03:30N 29°34' W 090°44'2 3.8
2017-Oct-14 03:00N 29°36' W 090°43'2 3.1
2017-Oct-14 02:31N 29°36' W 090°41'3 5.7
2017-Oct-14 02:00N 29°35' W 090°38'3 5.1
2017-Oct-14 01:28N 29°35' W 090°35'3 5.8
2017-Oct-14 01:01N 29°34' W 090°32'  
2017-Oct-08 13:02N 29°33' W 090°28'0 5.4
2017-Oct-08 12:59N 29°34' W 090°29'3 5.4
2017-Oct-08 12:30N 29°34' W 090°32'1 1.1
2017-Oct-08 12:00N 29°33' W 090°32'0 0.0
2017-Oct-08 11:30N 29°33' W 090°32'0 0.0
2017-Oct-08 11:00N 29°33' W 090°32'0 0.0
2017-Oct-08 10:30N 29°33' W 090°32'0 0.0
2017-Oct-08 10:00N 29°33' W 090°32'0 0.0
2017-Oct-08 09:30N 29°33' W 090°32'0 0.0
2017-Oct-08 09:00N 29°33' W 090°32'0 0.0
2017-Oct-08 08:30N 29°33' W 090°32'0 0.0
2017-Oct-08 08:00N 29°33' W 090°32'0 0.0
2017-Oct-08 07:30N 29°33' W 090°32'0 0.0
2017-Oct-08 07:00N 29°33' W 090°32'0 0.0
2017-Oct-08 06:30N 29°33' W 090°32'0 0.0
2017-Oct-08 06:00N 29°33' W 090°32'0 0.0
2017-Oct-08 05:30N 29°33' W 090°32'0 0.0
2017-Oct-08 05:00N 29°33' W 090°32'0 0.0
2017-Oct-08 04:30N 29°33' W 090°32'0 0.0
2017-Oct-08 04:00N 29°33' W 090°32'0 0.0
2017-Oct-08 03:30N 29°33' W 090°32'0 0.0
2017-Oct-08 03:00N 29°33' W 090°32'0 0.0
2017-Oct-08 02:30N 29°33' W 090°32'0 0.0
2017-Oct-08 02:00N 29°33' W 090°32'0 0.0
2017-Oct-08 01:30N 29°33' W 090°32'0 0.0
2017-Oct-08 01:00N 29°33' W 090°32'0 0.0
2017-Oct-08 00:30N 29°33' W 090°32'0 0.0
2017-Oct-08 00:00N 29°33' W 090°32'0 0.0
2017-Oct-07 23:30N 29°33' W 090°32'0 0.0
2017-Oct-07 23:00N 29°33' W 090°32'0 0.0
2017-Oct-07 22:30N 29°33' W 090°32'0 0.0
2017-Oct-07 22:00N 29°33' W 090°32'0 0.0
2017-Oct-07 21:30N 29°33' W 090°32'0 0.0
2017-Oct-07 21:00N 29°33' W 090°32'0 0.0
2017-Oct-07 20:30N 29°33' W 090°32'0 0.0
2017-Oct-07 20:00N 29°33' W 090°32'0 0.0
2017-Oct-07 19:30N 29°33' W 090°32'0 0.0
2017-Oct-07 19:00N 29°33' W 090°32'0 0.0
2017-Oct-07 18:30N 29°33' W 090°32'0 0.0
2017-Oct-07 18:00N 29°33' W 090°32'0 0.0
2017-Oct-07 17:30N 29°33' W 090°32'0 0.0
2017-Oct-07 17:00N 29°33' W 090°32'0 0.0
2017-Oct-07 16:30N 29°33' W 090°32'0 0.0
2017-Oct-07 16:00N 29°33' W 090°32'0 0.0
2017-Oct-07 15:30N 29°33' W 090°32'0 0.0
2017-Oct-07 15:00N 29°33' W 090°32'0 0.0
2017-Oct-07 14:30N 29°33' W 090°32'0 0.0
2017-Oct-07 14:00N 29°33' W 090°32'0 0.0
2017-Oct-07 13:30N 29°33' W 090°32'0 0.0
2017-Oct-07 13:00N 29°33' W 090°32'0 0.0
2017-Oct-07 12:30N 29°33' W 090°32'0 0.0
2017-Oct-07 12:00N 29°33' W 090°32'0 0.0
2017-Oct-07 11:30N 29°33' W 090°32'0 0.0
2017-Oct-07 11:00N 29°33' W 090°32'0 0.0
2017-Oct-07 10:30N 29°33' W 090°32'0 0.0
2017-Oct-07 10:00N 29°33' W 090°32'0 0.0
2017-Oct-07 09:30N 29°33' W 090°32'0 0.0
2017-Oct-07 09:00N 29°33' W 090°32'0 0.0
2017-Oct-07 08:30N 29°33' W 090°32'0 0.0
2017-Oct-07 08:00N 29°33' W 090°32'0 0.0
2017-Oct-07 07:30N 29°33' W 090°32'0 0.0
2017-Oct-07 06:59N 29°33' W 090°32'0 0.0
2017-Oct-07 06:30N 29°33' W 090°32'0 0.0
2017-Oct-07 06:00N 29°33' W 090°32'0 0.0
2017-Oct-07 05:30N 29°33' W 090°32'0 0.0
2017-Oct-07 05:00N 29°33' W 090°32'0 0.0
2017-Oct-07 04:30N 29°33' W 090°32'0 0.0
2017-Oct-07 04:00N 29°33' W 090°32'0 0.1
2017-Oct-07 03:30N 29°34' W 090°32'0 0.3
2017-Oct-07 02:59N 29°34' W 090°32'4 0.4
2017-Oct-06 16:27N 29°33' W 090°28'2 5.6
2017-Oct-06 16:00N 29°34' W 090°31'1 3.0
2017-Oct-06 15:30N 29°34' W 090°32'0 0.3
2017-Oct-06 15:00N 29°33' W 090°32'0 0.0
2017-Oct-06 14:30N 29°33' W 090°32'0 0.0
2017-Oct-06 14:00N 29°33' W 090°32'0 0.0
2017-Oct-06 13:30N 29°33' W 090°32'0 0.0
2017-Oct-06 13:00N 29°33' W 090°32'0 0.0
2017-Oct-06 12:30N 29°33' W 090°32'0 0.0
2017-Oct-06 12:00N 29°33' W 090°32'0 0.0
2017-Oct-06 11:30N 29°33' W 090°32'0 0.0
2017-Oct-06 11:00N 29°33' W 090°32'0 0.0
2017-Oct-06 10:30N 29°33' W 090°32'0 0.0
2017-Oct-06 10:00N 29°33' W 090°32'0 0.0
2017-Oct-06 09:30N 29°33' W 090°32'0 0.0
2017-Oct-06 09:00N 29°33' W 090°32'0 0.0
2017-Oct-06 08:30N 29°33' W 090°32'0 0.0
2017-Oct-06 08:00N 29°33' W 090°32'0 0.0
2017-Oct-06 07:30N 29°33' W 090°32'0 0.0
2017-Oct-06 07:00N 29°33' W 090°32'0 0.0
2017-Oct-06 06:30N 29°33' W 090°32'0 0.0
2017-Oct-06 06:00N 29°33' W 090°32'0 0.0
2017-Oct-06 05:30N 29°33' W 090°32'0 0.0
2017-Oct-06 05:00N 29°33' W 090°32'0 0.0
2017-Oct-06 04:30N 29°33' W 090°32'0 0.0
2017-Oct-06 04:00N 29°33' W 090°32'0 0.0
2017-Oct-06 03:30N 29°33' W 090°32'0 0.0
2017-Oct-06 03:00N 29°33' W 090°32'0 0.0
2017-Oct-06 02:30N 29°33' W 090°32'0 0.0
2017-Oct-06 02:00N 29°33' W 090°32'0 0.0
2017-Oct-06 01:30N 29°33' W 090°32'0 0.0
2017-Oct-06 01:00N 29°33' W 090°32'0 0.0
2017-Oct-06 00:30N 29°33' W 090°32'0 0.0
2017-Oct-06 00:00N 29°33' W 090°32'0 0.0
2017-Oct-05 23:28N 29°33' W 090°32'0 0.0
2017-Oct-05 23:00N 29°33' W 090°32'0 0.0
2017-Oct-05 22:30N 29°33' W 090°32'0 0.0
2017-Oct-05 22:00N 29°34' W 090°32'0 0.5
2017-Oct-05 21:30N 29°34' W 090°32'2 3.1
2017-Oct-05 21:00N 29°34' W 090°34'2 4.0
2017-Oct-05 20:30N 29°35' W 090°36'2 4.5
2017-Oct-05 20:00N 29°35' W 090°39'2 4.4
2017-Oct-05 19:30N 29°36' W 090°41'1 2.7
2017-Oct-05 19:00N 29°36' W 090°43'2 3.5
2017-Oct-05 18:30N 29°34' W 090°43'2 3.4
2017-Oct-05 18:00N 29°34' W 090°45'2 4.5
2017-Oct-05 17:30N 29°32' W 090°47'3 5.2
2017-Oct-05 16:59N 29°32' W 090°50'  

Dump ship's entire track history